Time;durP1;ratioP1;P1;durP2;ratioP2;P2;SDS_P1;SDS_P2;PMS_P1;PMS_P2;Temp;Humidity;BMP_temperature;BMP_pressure;BME280_temperature;BME280_humidity;BME280_pressure;Samples;Min_cycle;Max_cycle;Signal;HPM_P1;HPM_P2
2024/03/05 00:02:19;;;;;;;4.00;3.80;;;5.80;99.90;;;;;;5099406;28;20293;-86
2024/03/05 00:04:53;;;;;;;7.97;5.18;;;5.80;99.90;;;;;;5095866;28;20442;-84
2024/03/05 00:07:21;;;;;;;6.38;5.88;;;5.90;99.90;;;;;;5086516;28;20230;-85
2024/03/05 00:09:50;;;;;;;7.88;5.95;;;6.00;99.90;;;;;;5089806;28;20199;-83
2024/03/05 00:12:18;;;;;;;8.93;8.32;;;5.90;99.90;;;;;;5100547;28;20273;-84
2024/03/05 00:14:49;;;;;;;6.88;5.30;;;5.90;99.90;;;;;;5099766;28;20233;-82
2024/03/05 00:17:20;;;;;;;5.53;5.13;;;5.80;99.90;;;;;;5098624;28;20198;-84
2024/03/05 00:19:48;;;;;;;20.88;6.97;;;5.90;99.90;;;;;;5110831;28;20201;-84
2024/03/05 00:22:16;;;;;;;5.28;4.75;;;5.90;99.90;;;;;;5077755;28;20203;-86
2024/03/05 00:24:44;;;;;;;5.60;5.10;;;5.80;99.90;;;;;;5072018;28;20202;-84
2024/03/05 00:27:13;;;;;;;7.82;7.00;;;5.70;99.90;;;;;;5079203;28;20204;-83
2024/03/05 00:29:43;;;;;;;6.18;5.47;;;5.70;99.90;;;;;;5097688;28;20240;-85
2024/03/05 00:32:17;;;;;;;5.30;4.90;;;5.70;99.90;;;;;;5105983;28;20242;-85
2024/03/05 00:34:45;;;;;;;10.52;7.78;;;5.80;99.90;;;;;;5089907;28;20266;-85
2024/03/05 00:37:13;;;;;;;4.88;4.60;;;5.80;99.90;;;;;;5082077;28;20262;-82
2024/03/05 00:39:41;;;;;;;9.27;6.75;;;5.80;99.90;;;;;;5080030;28;20218;-85
2024/03/05 00:42:10;;;;;;;4.85;4.55;;;5.80;99.90;;;;;;5073959;28;20207;-84
2024/03/05 00:44:39;;;;;;;4.10;3.90;;;5.80;99.90;;;;;;5075593;28;20297;-85
2024/03/05 00:47:06;;;;;;;11.70;7.70;;;5.80;99.90;;;;;;5097690;28;20207;-84
2024/03/05 00:49:36;;;;;;;4.75;4.35;;;5.80;99.90;;;;;;5093334;28;20231;-84
2024/03/05 00:52:04;;;;;;;5.88;5.47;;;5.80;99.90;;;;;;5088684;28;20222;-84
2024/03/05 00:54:31;;;;;;;8.75;5.55;;;5.70;99.90;;;;;;5100051;28;20273;-85
2024/03/05 00:57:06;;;;;;;16.25;6.47;;;5.60;99.90;;;;;;5087886;28;20194;-89
2024/03/05 00:59:34;;;;;;;2.25;2.15;;;5.60;99.90;;;;;;5107759;28;20281;-85
2024/03/05 01:02:02;;;;;;;8.48;7.97;;;5.50;99.90;;;;;;5096973;28;20248;-85
2024/03/05 01:04:30;;;;;;;5.07;4.80;;;5.50;99.90;;;;;;5098264;28;20214;-86
2024/03/05 01:07:00;;;;;;;6.50;5.95;;;5.50;99.90;;;;;;5093149;28;20203;-85
2024/03/05 01:09:30;;;;;;;6.30;5.78;;;5.50;99.90;;;;;;5094140;28;20198;-85
2024/03/05 01:12:01;;;;;;;9.88;8.07;;;5.50;99.90;;;;;;5098497;28;20241;-85
2024/03/05 01:14:30;;;;;;;12.25;6.05;;;5.50;99.90;;;;;;5092889;28;20270;-85
2024/03/05 01:16:59;;;;;;;9.23;7.05;;;5.50;99.90;;;;;;5079001;28;20273;-84
2024/03/05 01:19:33;;;;;;;10.40;7.82;;;5.50;99.90;;;;;;5084480;28;20258;-85
2024/03/05 01:22:01;;;;;;;5.70;5.18;;;5.40;99.90;;;;;;5093965;28;20203;-87
2024/03/05 01:24:36;;;;;;;3.33;2.80;;;5.50;99.90;;;;;;5085124;28;20202;-82
2024/03/05 01:27:04;;;;;;;4.43;4.10;;;5.40;99.90;;;;;;5098832;28;20229;-85
2024/03/05 01:29:41;;;;;;;5.32;5.03;;;5.20;99.90;;;;;;5071047;28;21074;-87
2024/03/05 01:32:12;;;;;;;9.98;8.20;;;5.30;99.90;;;;;;5105455;28;20276;-86
2024/03/05 01:34:48;;;;;;;7.22;4.95;;;5.40;99.90;;;;;;5101251;28;20194;-87
2024/03/05 01:37:16;;;;;;;6.07;5.70;;;5.30;99.90;;;;;;5089414;28;20213;-87
2024/03/05 01:39:44;;;;;;;4.25;3.97;;;5.40;99.90;;;;;;5100837;28;20208;-86
2024/03/05 01:42:15;;;;;;;7.60;7.13;;;5.40;99.90;;;;;;5084419;28;20262;-83
2024/03/05 01:44:47;;;;;;;5.60;5.22;;;5.50;99.90;;;;;;5081713;28;20191;-84
2024/03/05 01:47:16;;;;;;;6.63;6.13;;;5.30;99.90;;;;;;5102365;28;20230;-83
2024/03/05 01:49:47;;;;;;;10.32;8.95;;;5.30;99.90;;;;;;5085279;28;20222;-85
2024/03/05 01:52:15;;;;;;;11.90;7.53;;;5.30;99.90;;;;;;5067435;28;20218;-83
2024/03/05 01:54:44;;;;;;;7.25;6.60;;;5.30;99.90;;;;;;5103825;28;20461;-84
2024/03/05 01:57:12;;;;;;;5.10;4.82;;;5.30;99.90;;;;;;5101243;28;20294;-84
2024/03/05 01:59:41;;;;;;;5.47;5.07;;;5.10;99.90;;;;;;5102627;28;21558;-83
2024/03/05 02:02:11;;;;;;;17.85;7.70;;;5.10;99.90;;;;;;5099748;28;20195;-83
2024/03/05 02:04:39;;;;;;;5.55;5.15;;;5.20;99.90;;;;;;5093521;28;20286;-83
2024/03/05 02:07:11;;;;;;;5.18;4.82;;;5.20;99.90;;;;;;5100136;28;20421;-85
2024/03/05 02:09:39;;;;;;;5.95;5.53;;;5.20;99.90;;;;;;5096776;28;20474;-84
2024/03/05 02:12:07;;;;;;;6.05;5.45;;;5.10;99.90;;;;;;5095288;28;20309;-85
2024/03/05 02:14:35;;;;;;;5.60;5.15;;;5.30;99.90;;;;;;5097717;28;20245;-83
2024/03/05 02:17:07;;;;;;;7.07;6.53;;;5.20;99.90;;;;;;5099563;28;20401;-82
2024/03/05 02:19:36;;;;;;;7.28;6.68;;;5.20;99.90;;;;;;5079492;28;20234;-85
2024/03/05 02:22:07;;;;;;;6.00;5.50;;;5.20;99.90;;;;;;5089337;28;20198;-84
2024/03/05 02:24:34;;;;;;;7.40;6.70;;;5.10;99.90;;;;;;5086305;28;20277;-84
2024/03/05 02:27:02;;;;;;;6.63;6.13;;;5.30;99.90;;;;;;5106673;28;20221;-86
2024/03/05 02:29:38;;;;;;;5.80;5.20;;;5.10;99.90;;;;;;5081548;28;20210;-84
2024/03/05 02:32:08;;;;;;;6.35;6.00;;;5.10;99.90;;;;;;5054621;28;20283;-84
2024/03/05 02:34:38;;;;;;;8.60;5.32;;;5.20;99.90;;;;;;5104510;28;20274;-84
2024/03/05 02:37:11;;;;;;;3.20;3.10;;;5.10;99.90;;;;;;5050480;28;20203;-84
2024/03/05 02:39:40;;;;;;;35.30;4.82;;;5.20;99.90;;;;;;5072918;28;20208;-83
2024/03/05 02:42:08;;;;;;;9.38;4.90;;;5.20;99.90;;;;;;5092244;28;20203;-84
2024/03/05 02:44:41;;;;;;;4.93;4.60;;;5.10;99.90;;;;;;5107635;28;20386;-85
2024/03/05 02:47:11;;;;;;;5.38;5.07;;;5.00;99.90;;;;;;5104404;28;20217;-86
2024/03/05 02:49:40;;;;;;;5.13;4.80;;;5.00;99.90;;;;;;5072777;28;20233;-85
2024/03/05 02:52:08;;;;;;;5.45;5.15;;;5.00;99.90;;;;;;5099047;28;20202;-85
2024/03/05 02:54:38;;;;;;;11.20;8.63;;;5.00;99.90;;;;;;5082015;28;20281;-84
2024/03/05 02:57:07;;;;;;;7.75;7.03;;;5.00;99.90;;;;;;5089813;28;20534;-84
2024/03/05 02:59:36;;;;;;;4.75;4.40;;;4.90;99.90;;;;;;5100982;28;20241;-84
2024/03/05 03:02:05;;;;;;;11.20;8.00;;;5.00;99.90;;;;;;5083661;28;20233;-83
2024/03/05 03:04:33;;;;;;;6.97;6.47;;;5.00;99.90;;;;;;5086213;28;20256;-84
2024/03/05 03:07:00;;;;;;;10.27;7.18;;;4.90;99.90;;;;;;5090939;28;20406;-85
2024/03/05 03:09:28;;;;;;;5.43;5.05;;;5.00;99.90;;;;;;5107319;28;20198;-84
2024/03/05 03:11:58;;;;;;;6.45;5.85;;;5.00;99.90;;;;;;5104416;28;20506;-83
2024/03/05 03:14:29;;;;;;;8.80;7.25;;;4.90;99.90;;;;;;5091606;28;20210;-84
2024/03/05 03:16:57;;;;;;;5.78;5.45;;;5.00;99.90;;;;;;5097334;28;20269;-84
2024/03/05 03:19:26;;;;;;;11.32;6.05;;;4.80;99.90;;;;;;5098536;28;20261;-84
2024/03/05 03:21:55;;;;;;;6.47;5.88;;;4.90;99.90;;;;;;5098872;28;20213;-86
2024/03/05 03:24:25;;;;;;;4.75;4.20;;;4.90;99.90;;;;;;5086629;28;20207;-83
2024/03/05 03:26:54;;;;;;;5.28;4.93;;;4.90;99.90;;;;;;5102604;28;20218;-85
2024/03/05 03:29:22;;;;;;;7.68;7.07;;;4.90;99.90;;;;;;5100134;28;20275;-87
2024/03/05 03:31:51;;;;;;;9.02;3.35;;;5.00;99.90;;;;;;5088289;28;20265;-85
2024/03/05 03:34:22;;;;;;;6.88;6.38;;;5.00;99.90;;;;;;5073612;28;20261;-84
2024/03/05 03:36:49;;;;;;;4.93;4.60;;;4.70;99.90;;;;;;5092143;28;20222;-84
2024/03/05 03:39:23;;;;;;;8.20;7.47;;;4.80;99.90;;;;;;5089567;28;20499;-85
2024/03/05 03:41:54;;;;;;;4.45;3.95;;;4.80;99.90;;;;;;5099512;28;20309;-85
2024/03/05 03:44:24;;;;;;;12.52;8.38;;;4.80;99.90;;;;;;5088773;28;20414;-83
2024/03/05 03:46:51;;;;;;;9.82;6.35;;;4.80;99.90;;;;;;5092314;28;20274;-83
2024/03/05 03:49:26;;;;;;;6.20;5.78;;;4.80;99.90;;;;;;5064536;28;20211;-82
2024/03/05 03:51:55;;;;;;;6.75;5.13;;;4.80;99.90;;;;;;5103487;28;20198;-84
2024/03/05 03:54:24;;;;;;;3.47;3.22;;;4.80;99.90;;;;;;5102846;28;20257;-84
2024/03/05 03:57:07;;;;;;;6.43;6.00;;;4.80;99.90;;;;;;5094262;28;20203;-84
2024/03/05 03:59:35;;;;;;;17.73;6.63;;;4.80;99.90;;;;;;5101054;28;20198;-85
2024/03/05 04:02:07;;;;;;;4.75;4.43;;;4.80;99.90;;;;;;5091067;28;20186;-84
2024/03/05 04:04:34;;;;;;;2.30;2.20;;;4.80;99.90;;;;;;5116217;28;20199;-83
2024/03/05 04:07:02;;;;;;;8.13;7.53;;;4.70;99.90;;;;;;5118181;28;20191;-83
2024/03/05 04:09:31;;;;;;;6.75;6.15;;;4.80;99.90;;;;;;5100595;28;20210;-84
2024/03/05 04:12:00;;;;;;;7.55;5.40;;;4.90;99.90;;;;;;5105760;28;20183;-84
2024/03/05 04:14:28;;;;;;;6.55;6.05;;;4.80;99.90;;;;;;5115676;28;20210;-85
2024/03/05 04:16:55;;;;;;;5.78;5.43;;;4.80;99.90;;;;;;5097629;28;20201;-83
2024/03/05 04:19:23;;;;;;;4.70;4.25;;;4.80;99.90;;;;;;5071369;28;20206;-84
2024/03/05 04:21:50;;;;;;;5.72;5.28;;;4.80;99.90;;;;;;5105235;28;20271;-84
2024/03/05 04:24:21;;;;;;;3.70;3.50;;;4.70;99.90;;;;;;5083656;28;20198;-85
2024/03/05 04:26:52;;;;;;;3.80;3.50;;;4.60;99.90;;;;;;5075066;28;20567;-84
2024/03/05 04:29:29;;;;;;;3.40;3.20;;;4.70;99.90;;;;;;5083946;28;20521;-85
2024/03/05 04:32:08;;;;;;;6.00;5.60;;;4.70;99.90;;;;;;5100662;28;20205;-82
2024/03/05 04:34:42;;;;;;;2.75;2.65;;;4.60;99.90;;;;;;5075390;28;20227;-84
2024/03/05 04:37:10;;;;;;;4.97;4.57;;;4.70;99.90;;;;;;5091762;28;20207;-85
2024/03/05 04:39:41;;;;;;;7.75;7.00;;;4.70;99.90;;;;;;5079559;28;20225;-85
2024/03/05 04:42:14;;;;;;;4.38;4.05;;;4.60;99.90;;;;;;5089003;28;20282;-81
2024/03/05 04:44:50;;;;;;;10.38;5.22;;;4.70;99.90;;;;;;5091389;28;20253;-85
2024/03/05 04:47:17;;;;;;;17.70;6.63;;;4.70;99.90;;;;;;5096600;28;20285;-81
2024/03/05 04:49:44;;;;;;;3.13;2.92;;;4.80;99.90;;;;;;5079665;28;20221;-83
2024/03/05 04:52:19;;;;;;;8.52;5.72;;;4.70;99.90;;;;;;5077549;28;20502;-81
2024/03/05 04:54:46;;;;;;;8.93;7.80;;;4.60;99.90;;;;;;5083199;28;20286;-80
2024/03/05 04:57:14;;;;;;;7.30;6.68;;;4.60;99.90;;;;;;5095368;28;20767;-81
2024/03/05 04:59:41;;;;;;;6.20;5.57;;;4.60;99.90;;;;;;5087914;28;20241;-80
2024/03/05 05:02:08;;;;;;;7.25;6.38;;;4.60;99.90;;;;;;5073742;28;20202;-80
2024/03/05 05:04:37;;;;;;;4.78;4.38;;;4.70;99.90;;;;;;5094088;28;20213;-79
2024/03/05 05:07:08;;;;;;;6.20;5.78;;;4.70;99.90;;;;;;5094370;28;20234;-79
2024/03/05 05:09:39;;;;;;;3.25;3.13;;;4.70;99.90;;;;;;5095948;28;20232;-77
2024/03/05 05:12:06;;;;;;;1.75;1.67;;;4.60;99.90;;;;;;5102911;28;20218;-79
2024/03/05 05:14:33;;;;;;;3.78;3.47;;;4.60;99.90;;;;;;5101985;28;20244;-80
2024/03/05 05:17:04;;;;;;;6.43;5.28;;;4.70;99.90;;;;;;5103921;28;20223;-80
2024/03/05 05:19:31;;;;;;;6.25;4.47;;;4.60;99.90;;;;;;5093271;28;20216;-79
2024/03/05 05:21:58;;;;;;;3.30;3.10;;;4.70;99.90;;;;;;5090632;28;20202;-77
2024/03/05 05:24:25;;;;;;;3.30;3.00;;;4.60;99.90;;;;;;5094811;28;20210;-79
2024/03/05 05:26:52;;;;;;;6.15;4.57;;;4.50;99.90;;;;;;5097769;28;20202;-78
2024/03/05 05:29:20;;;;;;;6.03;5.43;;;4.60;99.90;;;;;;5098300;28;20556;-78
2024/03/05 05:32:07;;;;;;;5.90;5.35;;;4.60;99.90;;;;;;5094799;28;20255;-78
2024/03/05 05:34:35;;;;;;;5.35;4.82;;;4.60;99.90;;;;;;5074476;28;20239;-77
2024/03/05 05:37:04;;;;;;;3.35;3.10;;;4.60;99.90;;;;;;5097621;28;20380;-78
2024/03/05 05:39:32;;;;;;;6.22;5.80;;;4.60;99.90;;;;;;5096344;28;20283;-78
2024/03/05 05:41:59;;;;;;;6.93;6.22;;;4.50;99.90;;;;;;5097894;28;20290;-78
2024/03/05 05:44:26;;;;;;;13.45;5.07;;;4.40;99.90;;;;;;5099421;28;20218;-77
2024/03/05 05:46:54;;;;;;;6.85;5.43;;;4.50;99.90;;;;;;5097488;28;20328;-78
2024/03/05 05:49:21;;;;;;;3.63;3.42;;;4.40;99.90;;;;;;5097928;28;20230;-78
2024/03/05 05:51:49;;;;;;;4.82;4.57;;;4.40;99.90;;;;;;5096898;28;20238;-78
2024/03/05 05:54:16;;;;;;;5.72;5.25;;;4.40;99.90;;;;;;5098449;28;20276;-78
2024/03/05 05:56:48;;;;;;;4.43;4.13;;;4.50;99.90;;;;;;5090561;28;20291;-79
2024/03/05 05:59:17;;;;;;;4.97;4.57;;;4.40;99.90;;;;;;5081611;28;20207;-79
2024/03/05 06:01:45;;;;;;;16.58;6.78;;;4.40;99.90;;;;;;5100231;28;20236;-78
2024/03/05 06:04:12;;;;;;;7.03;6.35;;;4.40;99.90;;;;;;5102153;28;20245;-79
2024/03/05 06:06:39;;;;;;;8.48;5.03;;;4.50;99.90;;;;;;5102305;28;20435;-80
2024/03/05 06:09:08;;;;;;;4.88;4.57;;;4.40;99.90;;;;;;5089710;28;20304;-78
2024/03/05 06:11:36;;;;;;;2.97;2.78;;;4.40;99.90;;;;;;5099206;28;20207;-80
2024/03/05 06:14:04;;;;;;;4.97;4.63;;;4.30;99.90;;;;;;5104968;28;20538;-79
2024/03/05 06:16:32;;;;;;;3.33;3.13;;;4.30;99.90;;;;;;5096176;28;20339;-79
2024/03/05 06:19:01;;;;;;;13.13;6.65;;;4.30;99.90;;;;;;5101692;28;20202;-81
2024/03/05 06:21:28;;;;;;;2.85;2.67;;;4.30;99.90;;;;;;5099232;28;20721;-82
2024/03/05 06:23:56;;;;;;;4.30;4.07;;;4.30;99.90;;;;;;5071113;28;20209;-79
2024/03/05 06:26:27;;;;;;;4.55;4.35;;;4.30;99.90;;;;;;5090899;28;20214;-78
2024/03/05 06:28:54;;;;;;;5.15;4.75;;;4.20;99.90;;;;;;5080723;28;20202;-81
2024/03/05 06:31:24;;;;;;;5.50;5.15;;;4.30;99.90;;;;;;5098151;28;20195;-81
2024/03/05 06:33:54;;;;;;;2.15;1.95;;;4.30;99.90;;;;;;5104118;28;20236;-80
2024/03/05 06:36:22;;;;;;;4.88;2.50;;;4.30;99.90;;;;;;5095394;28;20274;-80
2024/03/05 06:38:50;;;;;;;6.07;5.60;;;4.20;99.90;;;;;;5084853;28;20210;-79
2024/03/05 06:41:16;;;;;;;6.18;5.65;;;4.40;99.90;;;;;;5084003;28;20209;-79
2024/03/05 06:43:44;;;;;;;3.13;2.83;;;4.40;99.90;;;;;;5091484;28;20269;-79
2024/03/05 06:46:13;;;;;;;8.52;4.53;;;4.40;99.90;;;;;;5079785;28;20248;-80
2024/03/05 06:48:47;;;;;;;6.38;5.82;;;4.40;99.90;;;;;;5097243;28;20206;-81
2024/03/05 06:51:31;;;;;;;4.03;3.72;;;4.40;99.90;;;;;;5093994;28;20210;-80
2024/03/05 06:56:44;;;;;;;7.38;3.17;;;4.30;99.90;;;;;;5100976;28;20202;-80
2024/03/05 06:59:11;;;;;;;6.10;5.18;;;4.30;99.90;;;;;;5070584;28;20203;-79
2024/03/05 07:01:38;;;;;;;8.50;6.07;;;4.30;99.90;;;;;;5099292;28;20467;-79
2024/03/05 07:04:09;;;;;;;3.30;3.10;;;4.20;99.90;;;;;;5087984;28;20262;-79
2024/03/05 07:06:36;;;;;;;13.77;4.60;;;4.40;99.90;;;;;;5087116;28;20269;-82
2024/03/05 07:09:05;;;;;;;6.72;3.92;;;4.40;99.90;;;;;;5093410;28;20329;-81
2024/03/05 07:11:33;;;;;;;5.85;5.45;;;4.40;99.90;;;;;;5098680;28;20198;-80
2024/03/05 07:14:02;;;;;;;2.70;2.53;;;4.40;99.90;;;;;;5092398;28;20267;-80
2024/03/05 07:16:31;;;;;;;2.95;2.53;;;4.40;99.90;;;;;;5095260;28;20213;-80
2024/03/05 07:19:01;;;;;;;3.35;3.08;;;4.50;99.90;;;;;;5075311;28;20201;-80
2024/03/05 07:21:28;;;;;;;8.07;5.65;;;4.60;99.90;;;;;;5097397;28;20260;-80
2024/03/05 07:23:57;;;;;;;3.42;3.22;;;4.50;99.90;;;;;;5099095;28;20507;-83
2024/03/05 07:26:24;;;;;;;3.63;3.42;;;4.60;99.90;;;;;;5100629;28;20210;-81
2024/03/05 07:28:52;;;;;;;4.97;4.38;;;4.60;99.90;;;;;;5064249;28;20278;-81
2024/03/05 07:31:20;;;;;;;1.92;1.83;;;4.70;99.90;;;;;;5089783;28;20210;-81
2024/03/05 07:33:48;;;;;;;14.40;3.88;;;4.70;99.90;;;;;;5089061;28;20237;-79
2024/03/05 07:36:20;;;;;;;4.00;3.80;;;4.90;99.90;;;;;;5090886;28;20222;-79
2024/03/05 07:38:47;;;;;;;1.25;1.25;;;4.90;99.90;;;;;;5098811;28;20281;-79
2024/03/05 07:41:14;;;;;;;5.68;5.15;;;4.90;99.90;;;;;;5097266;28;20209;-79
2024/03/05 07:43:55;;;;;;;3.10;3.00;;;5.00;99.90;;;;;;5093146;28;20207;-81
2024/03/05 07:46:23;;;;;;;4.32;3.65;;;5.10;99.90;;;;;;5099809;28;20217;-80
2024/03/05 07:48:51;;;;;;;6.88;5.07;;;5.10;99.90;;;;;;5081429;28;20206;-80
2024/03/05 07:51:18;;;;;;;5.57;5.25;;;5.00;99.90;;;;;;5098731;28;20269;-80
2024/03/05 07:53:54;;;;;;;6.43;5.75;;;5.10;99.90;;;;;;5095411;28;20230;-82
2024/03/05 07:56:21;;;;;;;4.53;4.13;;;5.20;99.90;;;;;;5076945;28;20459;-80
2024/03/05 07:58:48;;;;;;;4.72;4.38;;;5.10;99.90;;;;;;5099205;28;20194;-80
2024/03/05 08:01:15;;;;;;;7.45;6.78;;;5.10;99.90;;;;;;5100348;28;20446;-80
2024/03/05 08:03:42;;;;;;;2.70;2.50;;;5.20;99.90;;;;;;5090890;28;20444;-80
2024/03/05 08:06:09;;;;;;;2.22;2.00;;;5.10;99.90;;;;;;5088812;28;20226;-79
2024/03/05 08:08:36;;;;;;;3.00;2.78;;;5.10;99.90;;;;;;5093929;28;20439;-80
2024/03/05 08:11:05;;;;;;;5.43;4.18;;;5.00;99.90;;;;;;5096502;28;20372;-79
2024/03/05 08:13:36;;;;;;;2.60;2.50;;;5.20;99.90;;;;;;5093899;28;20211;-79
2024/03/05 08:16:08;;;;;;;2.10;1.90;;;5.20;99.90;;;;;;5069289;28;20248;-80
2024/03/05 08:18:35;;;;;;;1.60;1.50;;;5.30;99.90;;;;;;5082495;28;20210;-80
2024/03/05 08:21:02;;;;;;;2.97;1.55;;;5.30;99.90;;;;;;5098715;28;20262;-80
2024/03/05 08:23:29;;;;;;;1.80;1.70;;;5.20;99.90;;;;;;5081094;28;20266;-81
2024/03/05 08:25:56;;;;;;;2.65;2.55;;;5.20;99.90;;;;;;5097525;28;20395;-83
2024/03/05 08:28:25;;;;;;;3.65;3.45;;;5.40;99.90;;;;;;5073998;28;20270;-81
2024/03/05 08:30:53;;;;;;;2.70;2.50;;;5.60;99.90;;;;;;5098228;28;20229;-81
2024/03/05 08:33:23;;;;;;;7.53;6.03;;;5.70;99.90;;;;;;5100755;28;20203;-79
2024/03/05 08:35:50;;;;;;;2.75;2.55;;;6.00;99.90;;;;;;5094994;28;20239;-80
2024/03/05 08:38:18;;;;;;;1.77;1.70;;;6.20;99.90;;;;;;5073810;28;20596;-80
2024/03/05 08:40:46;;;;;;;2.10;1.90;;;6.30;99.90;;;;;;5095251;28;20206;-80
2024/03/05 08:43:14;;;;;;;3.08;2.88;;;6.60;99.90;;;;;;5074670;28;20206;-81
2024/03/05 08:45:42;;;;;;;1.15;1.15;;;6.40;99.90;;;;;;5097040;28;20240;-80
2024/03/05 08:48:09;;;;;;;1.25;1.15;;;6.20;99.90;;;;;;5097854;28;20277;-81
2024/03/05 08:50:37;;;;;;;1.58;1.48;;;6.30;99.90;;;;;;5086163;28;20213;-79
2024/03/05 08:53:04;;;;;;;1.88;1.77;;;6.60;99.90;;;;;;5105176;28;20252;-80
2024/03/05 08:55:35;;;;;;;4.47;4.10;;;6.80;99.90;;;;;;5099840;28;20233;-80
2024/03/05 08:58:03;;;;;;;1.35;1.35;;;6.80;99.90;;;;;;5107671;28;20207;-81
2024/03/05 09:00:33;;;;;;;7.07;3.13;;;6.60;99.90;;;;;;5093739;28;20206;-80
2024/03/05 09:03:13;;;;;;;1.20;1.20;;;6.80;99.90;;;;;;5102083;28;20202;-82
2024/03/05 09:05:41;;;;;;;2.08;1.98;;;6.70;99.90;;;;;;5094454;28;20403;-81
2024/03/05 09:08:18;;;;;;;1.77;1.77;;;6.90;99.90;;;;;;5096021;28;20201;-81
2024/03/05 09:10:46;;;;;;;3.47;3.28;;;7.00;99.90;;;;;;5092389;28;20206;-81
2024/03/05 09:13:14;;;;;;;1.88;1.77;;;6.80;99.90;;;;;;5096375;28;20230;-81
2024/03/05 09:15:43;;;;;;;1.52;1.48;;;7.10;99.90;;;;;;5092722;28;20254;-81
2024/03/05 09:18:13;;;;;;;5.07;3.75;;;6.90;99.90;;;;;;5076668;28;20336;-81
2024/03/05 09:20:42;;;;;;;1.40;1.40;;;7.00;99.90;;;;;;5090813;28;20210;-80
2024/03/05 09:23:10;;;;;;;6.57;3.00;;;6.80;99.90;;;;;;5077834;28;20202;-79
2024/03/05 09:25:41;;;;;;;1.50;1.40;;;6.80;99.90;;;;;;5077454;28;20507;-84
2024/03/05 09:28:12;;;;;;;0.80;0.80;;;6.80;99.90;;;;;;5076171;28;20579;-84
2024/03/05 09:30:42;;;;;;;2.92;2.78;;;6.60;99.90;;;;;;5079003;28;20201;-83
2024/03/05 09:33:09;;;;;;;1.42;1.38;;;6.90;99.90;;;;;;5096965;28;20407;-84
2024/03/05 09:35:38;;;;;;;1.80;1.77;;;7.20;99.90;;;;;;5092137;28;20793;-83
2024/03/05 09:38:05;;;;;;;1.67;1.65;;;6.80;99.90;;;;;;5098296;28;20468;-84
2024/03/05 09:40:34;;;;;;;1.67;1.67;;;7.50;99.90;;;;;;5079801;28;20211;-84
2024/03/05 09:43:04;;;;;;;2.03;1.92;;;7.50;99.90;;;;;;5098152;28;20213;-83
2024/03/05 09:45:36;;;;;;;1.98;1.88;;;8.10;99.90;;;;;;5092925;28;20226;-82
2024/03/05 09:48:11;;;;;;;2.28;2.08;;;8.20;99.90;;;;;;5096402;28;20390;-82
2024/03/05 09:50:39;;;;;;;1.95;1.85;;;8.60;99.90;;;;;;5073623;28;20228;-83
2024/03/05 09:53:08;;;;;;;1.95;1.85;;;9.00;99.90;;;;;;5064281;28;20203;-82
2024/03/05 09:55:36;;;;;;;4.80;1.90;;;8.10;99.90;;;;;;5092831;28;20236;-83
2024/03/05 09:58:09;;;;;;;1.65;1.55;;;8.10;99.90;;;;;;5102076;28;20411;-83
2024/03/05 10:00:40;;;;;;;2.47;2.38;;;8.20;99.90;;;;;;5080991;28;20206;-83
2024/03/05 10:03:38;;;;;;;1.63;1.45;;;7.80;99.90;;;;;;5080889;28;20250;-82
2024/03/05 10:06:13;;;;;;;1.25;1.25;;;8.30;99.90;;;;;;5112158;28;20202;-85
2024/03/05 10:08:42;;;;;;;2.80;2.70;;;8.00;99.90;;;;;;5090208;28;20194;-83
2024/03/05 10:11:10;;;;;;;3.33;1.33;;;7.70;99.90;;;;;;5112652;28;20210;-83
2024/03/05 10:13:39;;;;;;;1.08;1.08;;;8.20;99.90;;;;;;5105152;28;20206;-83
2024/03/05 10:16:17;;;;;;;1.70;1.60;;;8.20;99.90;;;;;;5085800;28;20538;-82
2024/03/05 10:18:47;;;;;;;2.00;1.90;;;8.30;99.90;;;;;;5080463;28;20202;-84
2024/03/05 10:21:24;;;;;;;0.98;0.98;;;8.00;99.90;;;;;;5100255;28;20209;-82
2024/03/05 10:23:58;;;;;;;0.88;0.88;;;7.50;99.90;;;;;;5100985;28;20210;-85
2024/03/05 10:26:28;;;;;;;1.98;1.90;;;8.20;99.90;;;;;;5097384;28;20252;-82
2024/03/05 10:28:58;;;;;;;2.00;1.90;;;8.30;99.90;;;;;;5095421;28;20234;-82
2024/03/05 10:31:27;;;;;;;2.47;2.38;;;8.10;99.90;;;;;;5112119;28;20183;-83
2024/03/05 10:33:58;;;;;;;1.33;1.33;;;8.30;99.90;;;;;;5091910;28;20299;-82
2024/03/05 10:36:38;;;;;;;1.98;1.88;;;8.10;99.90;;;;;;5112840;28;20193;-85
2024/03/05 10:39:08;;;;;;;1.55;1.55;;;8.30;99.90;;;;;;5123968;28;20197;-82
2024/03/05 10:41:38;;;;;;;1.75;1.65;;;8.90;99.90;;;;;;5089325;28;20269;-81
2024/03/05 10:44:18;;;;;;;1.42;1.38;;;8.60;99.90;;;;;;5092872;28;20203;-82
2024/03/05 10:46:49;;;;;;;2.53;2.33;;;8.50;99.90;;;;;;5097194;28;20218;-82
2024/03/05 10:49:21;;;;;;;1.00;1.00;;;8.30;99.90;;;;;;5091262;28;20526;-84
2024/03/05 10:51:51;;;;;;;1.15;1.15;;;8.70;99.90;;;;;;5096884;28;20287;-82
2024/03/05 10:54:20;;;;;;;1.05;1.05;;;8.70;99.90;;;;;;5082204;28;20276;-82
2024/03/05 10:56:49;;;;;;;1.95;1.45;;;8.80;99.90;;;;;;5096558;28;20198;-82
2024/03/05 11:01:45;;;;;;;4.85;4.55;;;8.40;99.90;;;;;;5102033;28;20273;-81
2024/03/05 11:04:20;;;;;;;0.82;0.82;;;8.60;99.90;;;;;;5093839;28;20199;-83
2024/03/05 11:06:54;;;;;;;1.35;1.35;;;8.40;99.90;;;;;;5101107;28;20257;-83
2024/03/05 11:09:29;;;;;;;1.10;1.10;;;8.00;99.90;;;;;;5103296;28;20210;-81
2024/03/05 11:12:07;;;;;;;0.98;0.98;;;8.00;99.90;;;;;;5093855;28;20232;-83
2024/03/05 11:14:38;;;;;;;2.92;2.83;;;8.00;99.90;;;;;;5096343;28;20268;-82
2024/03/05 11:17:09;;;;;;;2.42;2.33;;;7.90;99.90;;;;;;5103803;28;20290;-82
2024/03/05 11:19:41;;;;;;;2.10;2.00;;;7.60;99.90;;;;;;5098193;28;20262;-83
2024/03/05 11:22:40;;;;;;;2.80;2.70;;;7.30;99.90;;;;;;5101702;28;20221;-83
2024/03/05 11:25:07;;;;;;;4.13;3.80;;;7.30;99.90;;;;;;5099053;28;20208;-80
2024/03/05 11:27:36;;;;;;;2.92;2.72;;;7.40;99.90;;;;;;5114104;28;20258;-84
2024/03/05 11:30:11;;;;;;;2.58;2.47;;;7.70;99.90;;;;;;5095758;28;20183;-84
2024/03/05 11:32:39;;;;;;;7.70;4.78;;;7.70;99.90;;;;;;5102305;28;20271;-83
2024/03/05 11:35:08;;;;;;;4.20;4.00;;;7.40;99.90;;;;;;5098642;28;20258;-84
2024/03/05 11:37:54;;;;;;;2.05;1.95;;;7.60;99.90;;;;;;5098478;28;20238;-82
2024/03/05 11:40:34;;;;;;;3.65;3.45;;;7.50;99.90;;;;;;5074284;28;20228;-83
2024/03/05 11:43:05;;;;;;;1.60;1.50;;;7.50;99.90;;;;;;5093704;28;20207;-83
2024/03/05 11:45:53;;;;;;;1.73;1.63;;;7.20;99.90;;;;;;5096178;28;20242;-79
2024/03/05 11:48:23;;;;;;;1.45;1.45;;;7.00;99.90;;;;;;5101345;28;20604;-83
2024/03/05 11:50:55;;;;;;;2.95;2.75;;;6.90;99.90;;;;;;5081744;28;20234;-85
2024/03/05 11:53:26;;;;;;;1.58;1.50;;;6.80;99.90;;;;;;5094492;28;20211;-84
2024/03/05 11:56:08;;;;;;;1.60;1.25;;;6.80;99.90;;;;;;5110493;28;20252;-83
2024/03/05 11:58:37;;;;;;;3.20;2.97;;;6.90;99.90;;;;;;5068507;28;20214;-84
2024/03/05 12:01:09;;;;;;;4.68;4.28;;;6.80;99.90;;;;;;5099218;28;20200;-84
2024/03/05 12:03:37;;;;;;;6.10;5.57;;;6.80;99.90;;;;;;5095368;28;20195;-84
2024/03/05 12:06:07;;;;;;;1.15;1.15;;;6.80;99.90;;;;;;5075788;28;20247;-83
2024/03/05 12:08:38;;;;;;;2.65;2.45;;;6.70;99.90;;;;;;5103033;28;20194;-83
2024/03/05 12:11:05;;;;;;;5.03;4.70;;;6.60;99.90;;;;;;5103859;28;20211;-85
2024/03/05 12:13:33;;;;;;;2.08;2.08;;;6.50;99.90;;;;;;5093747;28;20229;-84
2024/03/05 12:16:19;;;;;;;1.63;1.52;;;6.50;99.90;;;;;;5089574;28;20234;-84
2024/03/05 12:18:52;;;;;;;4.50;4.30;;;6.50;99.90;;;;;;5098986;28;20198;-83
2024/03/05 12:21:22;;;;;;;3.30;2.88;;;6.40;99.90;;;;;;5100261;28;20280;-83
2024/03/05 12:23:53;;;;;;;3.15;2.97;;;6.30;99.90;;;;;;5095653;28;20296;-83
2024/03/05 12:26:23;;;;;;;5.72;5.38;;;6.20;99.90;;;;;;5096429;28;20209;-84
2024/03/05 12:28:50;;;;;;;3.90;2.85;;;6.30;99.90;;;;;;5077815;28;20211;-85
2024/03/05 12:31:21;;;;;;;3.33;3.13;;;6.50;99.90;;;;;;5082664;28;20233;-84
2024/03/05 12:33:48;;;;;;;1.98;1.88;;;6.30;99.90;;;;;;5089097;28;20242;-84
2024/03/05 12:36:15;;;;;;;1.65;1.55;;;6.30;99.90;;;;;;5074338;28;20582;-84
2024/03/05 12:38:43;;;;;;;1.30;1.27;;;6.20;99.90;;;;;;5090441;28;20234;-83
2024/03/05 12:41:18;;;;;;;3.17;2.97;;;6.10;99.90;;;;;;5102929;28;20218;-84
2024/03/05 12:43:53;;;;;;;4.60;4.15;;;6.20;99.90;;;;;;5082706;28;20296;-84
2024/03/05 12:46:24;;;;;;;12.05;3.50;;;6.10;99.90;;;;;;5093218;28;20503;-83
2024/03/05 12:48:57;;;;;;;3.72;3.50;;;6.10;99.90;;;;;;5091737;28;20385;-85
2024/03/05 12:51:27;;;;;;;0.93;0.93;;;6.20;99.90;;;;;;5094805;28;20211;-85
2024/03/05 12:54:05;;;;;;;2.45;2.35;;;6.20;99.90;;;;;;5110159;28;20488;-82
2024/03/05 12:56:45;;;;;;;3.05;2.78;;;6.20;99.90;;;;;;5093905;28;20264;-83
2024/03/05 12:59:19;;;;;;;6.70;4.30;;;6.10;99.90;;;;;;5100281;28;20212;-82
2024/03/05 13:01:53;;;;;;;1.67;1.58;;;6.20;99.90;;;;;;5101658;28;20379;-83
2024/03/05 13:04:23;;;;;;;8.27;5.90;;;6.10;99.90;;;;;;5100485;28;20364;-83
2024/03/05 13:06:50;;;;;;;7.55;2.67;;;6.10;99.90;;;;;;5071642;28;20207;-84
2024/03/05 13:09:21;;;;;;;4.75;2.90;;;6.00;99.90;;;;;;5081289;28;20548;-84
2024/03/05 13:11:51;;;;;;;2.40;2.30;;;6.00;99.90;;;;;;5077142;28;20436;-83
2024/03/05 13:14:19;;;;;;;12.13;2.97;;;6.10;99.90;;;;;;5096712;28;20611;-83
2024/03/05 13:16:50;;;;;;;2.05;1.42;;;6.10;99.90;;;;;;5094223;28;20223;-82